sensor_id;sensor_type;location;lat;lon;timestamp;P1;durP1;ratioP1;P2;durP2;ratioP2
809;SDS011;387;48.772;9.186;2023-05-14T00:01:24;20.23;;;10.30;;
809;SDS011;387;48.772;9.186;2023-05-14T00:03:49;16.20;;;11.00;;
809;SDS011;387;48.772;9.186;2023-05-14T00:06:15;18.60;;;10.37;;
809;SDS011;387;48.772;9.186;2023-05-14T00:08:41;15.50;;;9.67;;
809;SDS011;387;48.772;9.186;2023-05-14T00:11:06;18.07;;;10.73;;
809;SDS011;387;48.772;9.186;2023-05-14T00:13:33;15.13;;;9.50;;
809;SDS011;387;48.772;9.186;2023-05-14T00:15:59;13.60;;;9.63;;
809;SDS011;387;48.772;9.186;2023-05-14T00:18:25;20.60;;;11.13;;
809;SDS011;387;48.772;9.186;2023-05-14T00:20:50;14.37;;;9.23;;
809;SDS011;387;48.772;9.186;2023-05-14T00:23:19;21.03;;;11.63;;
809;SDS011;387;48.772;9.186;2023-05-14T00:25:45;17.37;;;10.60;;
809;SDS011;387;48.772;9.186;2023-05-14T00:28:10;17.73;;;10.70;;
809;SDS011;387;48.772;9.186;2023-05-14T00:30:36;18.00;;;12.13;;
809;SDS011;387;48.772;9.186;2023-05-14T00:33:02;18.13;;;11.17;;
809;SDS011;387;48.772;9.186;2023-05-14T00:35:28;15.53;;;10.33;;
809;SDS011;387;48.772;9.186;2023-05-14T00:37:53;20.90;;;11.30;;
809;SDS011;387;48.772;9.186;2023-05-14T00:40:19;20.03;;;12.17;;
809;SDS011;387;48.772;9.186;2023-05-14T00:42:46;20.60;;;11.87;;
809;SDS011;387;48.772;9.186;2023-05-14T00:45:12;21.37;;;12.10;;
809;SDS011;387;48.772;9.186;2023-05-14T00:47:37;20.60;;;12.00;;
809;SDS011;387;48.772;9.186;2023-05-14T00:50:04;18.10;;;11.27;;
809;SDS011;387;48.772;9.186;2023-05-14T00:52:30;22.10;;;12.63;;
809;SDS011;387;48.772;9.186;2023-05-14T00:54:56;19.13;;;11.83;;
809;SDS011;387;48.772;9.186;2023-05-14T00:57:23;17.77;;;11.30;;
809;SDS011;387;48.772;9.186;2023-05-14T00:59:49;22.80;;;12.87;;
809;SDS011;387;48.772;9.186;2023-05-14T01:02:14;20.00;;;11.87;;
809;SDS011;387;48.772;9.186;2023-05-14T01:04:40;16.80;;;9.93;;
809;SDS011;387;48.772;9.186;2023-05-14T01:07:29;18.67;;;11.30;;
809;SDS011;387;48.772;9.186;2023-05-14T01:10:10;19.77;;;12.30;;
809;SDS011;387;48.772;9.186;2023-05-14T01:12:51;16.53;;;10.80;;
809;SDS011;387;48.772;9.186;2023-05-14T01:15:37;17.67;;;11.80;;
809;SDS011;387;48.772;9.186;2023-05-14T01:18:06;22.10;;;13.60;;
809;SDS011;387;48.772;9.186;2023-05-14T01:20:33;17.70;;;11.87;;
809;SDS011;387;48.772;9.186;2023-05-14T01:23:00;19.70;;;11.73;;
809;SDS011;387;48.772;9.186;2023-05-14T01:25:25;20.17;;;11.90;;
809;SDS011;387;48.772;9.186;2023-05-14T01:27:57;20.27;;;12.20;;
809;SDS011;387;48.772;9.186;2023-05-14T01:30:31;22.43;;;13.60;;
809;SDS011;387;48.772;9.186;2023-05-14T01:33:09;21.47;;;12.23;;
809;SDS011;387;48.772;9.186;2023-05-14T01:35:37;17.10;;;11.10;;
809;SDS011;387;48.772;9.186;2023-05-14T01:38:05;22.57;;;12.90;;
809;SDS011;387;48.772;9.186;2023-05-14T01:40:35;18.43;;;11.77;;
809;SDS011;387;48.772;9.186;2023-05-14T01:43:01;18.57;;;11.50;;
809;SDS011;387;48.772;9.186;2023-05-14T01:45:28;23.67;;;12.80;;
809;SDS011;387;48.772;9.186;2023-05-14T01:47:54;20.60;;;11.53;;
809;SDS011;387;48.772;9.186;2023-05-14T01:50:20;20.50;;;11.93;;
809;SDS011;387;48.772;9.186;2023-05-14T01:52:46;21.10;;;12.20;;
809;SDS011;387;48.772;9.186;2023-05-14T01:55:17;22.03;;;13.67;;
809;SDS011;387;48.772;9.186;2023-05-14T01:57:43;19.73;;;11.50;;
809;SDS011;387;48.772;9.186;2023-05-14T02:00:08;18.93;;;12.00;;
809;SDS011;387;48.772;9.186;2023-05-14T02:02:34;23.23;;;12.80;;
809;SDS011;387;48.772;9.186;2023-05-14T02:05:00;23.60;;;12.03;;
809;SDS011;387;48.772;9.186;2023-05-14T02:07:26;18.60;;;11.20;;
809;SDS011;387;48.772;9.186;2023-05-14T02:09:51;24.77;;;14.40;;
809;SDS011;387;48.772;9.186;2023-05-14T02:12:17;18.57;;;11.47;;
809;SDS011;387;48.772;9.186;2023-05-14T02:14:43;29.07;;;12.97;;
809;SDS011;387;48.772;9.186;2023-05-14T02:17:08;20.17;;;11.63;;
809;SDS011;387;48.772;9.186;2023-05-14T02:19:34;21.97;;;13.23;;
809;SDS011;387;48.772;9.186;2023-05-14T02:21:59;24.00;;;13.97;;
809;SDS011;387;48.772;9.186;2023-05-14T02:24:25;23.10;;;12.83;;
809;SDS011;387;48.772;9.186;2023-05-14T02:26:51;19.80;;;11.70;;
809;SDS011;387;48.772;9.186;2023-05-14T02:29:17;22.17;;;12.80;;
809;SDS011;387;48.772;9.186;2023-05-14T02:31:42;25.50;;;13.50;;
809;SDS011;387;48.772;9.186;2023-05-14T02:34:08;25.20;;;12.90;;
809;SDS011;387;48.772;9.186;2023-05-14T02:36:34;24.23;;;12.90;;
809;SDS011;387;48.772;9.186;2023-05-14T02:38:59;20.40;;;12.30;;
809;SDS011;387;48.772;9.186;2023-05-14T02:41:25;22.07;;;13.57;;
809;SDS011;387;48.772;9.186;2023-05-14T02:43:51;23.80;;;13.20;;
809;SDS011;387;48.772;9.186;2023-05-14T02:46:17;22.87;;;12.83;;
809;SDS011;387;48.772;9.186;2023-05-14T02:48:43;20.67;;;12.17;;
809;SDS011;387;48.772;9.186;2023-05-14T02:51:09;19.63;;;12.50;;
809;SDS011;387;48.772;9.186;2023-05-14T02:53:35;21.53;;;12.83;;
809;SDS011;387;48.772;9.186;2023-05-14T02:56:00;21.00;;;11.60;;
809;SDS011;387;48.772;9.186;2023-05-14T02:58:26;18.77;;;11.70;;
809;SDS011;387;48.772;9.186;2023-05-14T03:00:51;21.37;;;12.70;;
809;SDS011;387;48.772;9.186;2023-05-14T03:03:17;21.50;;;12.73;;
809;SDS011;387;48.772;9.186;2023-05-14T03:05:43;22.17;;;12.73;;
809;SDS011;387;48.772;9.186;2023-05-14T03:08:09;23.83;;;12.33;;
809;SDS011;387;48.772;9.186;2023-05-14T03:10:35;19.10;;;11.67;;
809;SDS011;387;48.772;9.186;2023-05-14T03:13:01;18.63;;;10.70;;
809;SDS011;387;48.772;9.186;2023-05-14T03:15:26;18.00;;;11.17;;
809;SDS011;387;48.772;9.186;2023-05-14T03:17:52;19.30;;;11.20;;
809;SDS011;387;48.772;9.186;2023-05-14T03:20:18;22.50;;;12.50;;
809;SDS011;387;48.772;9.186;2023-05-14T03:22:44;17.27;;;11.00;;
809;SDS011;387;48.772;9.186;2023-05-14T03:25:10;19.93;;;10.90;;
809;SDS011;387;48.772;9.186;2023-05-14T03:27:35;17.57;;;11.53;;
809;SDS011;387;48.772;9.186;2023-05-14T03:30:01;18.20;;;11.50;;
809;SDS011;387;48.772;9.186;2023-05-14T03:32:27;18.17;;;10.60;;
809;SDS011;387;48.772;9.186;2023-05-14T03:34:53;20.13;;;11.43;;
809;SDS011;387;48.772;9.186;2023-05-14T03:37:19;18.27;;;10.50;;
809;SDS011;387;48.772;9.186;2023-05-14T03:39:45;20.40;;;12.90;;
809;SDS011;387;48.772;9.186;2023-05-14T03:42:10;17.20;;;10.57;;
809;SDS011;387;48.772;9.186;2023-05-14T03:44:36;18.73;;;11.20;;
809;SDS011;387;48.772;9.186;2023-05-14T03:47:02;22.40;;;11.00;;
809;SDS011;387;48.772;9.186;2023-05-14T03:49:27;19.43;;;11.90;;
809;SDS011;387;48.772;9.186;2023-05-14T03:51:53;17.00;;;10.83;;
809;SDS011;387;48.772;9.186;2023-05-14T03:54:18;21.33;;;13.17;;
809;SDS011;387;48.772;9.186;2023-05-14T03:56:44;19.23;;;11.13;;
809;SDS011;387;48.772;9.186;2023-05-14T03:59:10;18.90;;;11.30;;
809;SDS011;387;48.772;9.186;2023-05-14T04:01:35;20.07;;;11.10;;
809;SDS011;387;48.772;9.186;2023-05-14T04:04:01;21.80;;;10.90;;
809;SDS011;387;48.772;9.186;2023-05-14T04:06:26;18.60;;;9.97;;
809;SDS011;387;48.772;9.186;2023-05-14T04:08:52;18.23;;;10.40;;
809;SDS011;387;48.772;9.186;2023-05-14T04:11:18;15.53;;;9.70;;
809;SDS011;387;48.772;9.186;2023-05-14T04:13:43;16.90;;;10.20;;
809;SDS011;387;48.772;9.186;2023-05-14T04:16:09;16.13;;;9.90;;
809;SDS011;387;48.772;9.186;2023-05-14T04:18:34;15.37;;;10.33;;
809;SDS011;387;48.772;9.186;2023-05-14T04:21:00;18.60;;;10.60;;
809;SDS011;387;48.772;9.186;2023-05-14T04:23:26;18.77;;;11.33;;
809;SDS011;387;48.772;9.186;2023-05-14T04:25:52;18.80;;;10.87;;
809;SDS011;387;48.772;9.186;2023-05-14T04:28:18;16.83;;;11.00;;
809;SDS011;387;48.772;9.186;2023-05-14T04:30:43;16.00;;;10.23;;
809;SDS011;387;48.772;9.186;2023-05-14T04:33:09;17.73;;;9.87;;
809;SDS011;387;48.772;9.186;2023-05-14T04:35:35;16.23;;;10.20;;
809;SDS011;387;48.772;9.186;2023-05-14T04:38:01;17.50;;;11.20;;
809;SDS011;387;48.772;9.186;2023-05-14T04:40:27;17.23;;;10.40;;
809;SDS011;387;48.772;9.186;2023-05-14T04:42:52;23.27;;;11.70;;
809;SDS011;387;48.772;9.186;2023-05-14T04:45:18;23.20;;;10.63;;
809;SDS011;387;48.772;9.186;2023-05-14T04:47:44;15.03;;;9.83;;
809;SDS011;387;48.772;9.186;2023-05-14T04:50:10;16.90;;;10.60;;
809;SDS011;387;48.772;9.186;2023-05-14T04:52:36;21.13;;;12.00;;
809;SDS011;387;48.772;9.186;2023-05-14T04:55:02;19.50;;;11.70;;
809;SDS011;387;48.772;9.186;2023-05-14T04:57:28;23.23;;;11.87;;
809;SDS011;387;48.772;9.186;2023-05-14T04:59:54;23.97;;;11.87;;
809;SDS011;387;48.772;9.186;2023-05-14T05:02:19;22.70;;;12.93;;
809;SDS011;387;48.772;9.186;2023-05-14T05:04:45;18.10;;;11.93;;
809;SDS011;387;48.772;9.186;2023-05-14T05:07:11;19.00;;;11.20;;
809;SDS011;387;48.772;9.186;2023-05-14T05:09:37;17.80;;;11.20;;
809;SDS011;387;48.772;9.186;2023-05-14T05:12:03;18.20;;;11.63;;
809;SDS011;387;48.772;9.186;2023-05-14T05:14:29;22.13;;;11.80;;
809;SDS011;387;48.772;9.186;2023-05-14T05:16:55;17.93;;;10.77;;
809;SDS011;387;48.772;9.186;2023-05-14T05:19:20;18.00;;;11.03;;
809;SDS011;387;48.772;9.186;2023-05-14T05:21:46;15.47;;;10.17;;
809;SDS011;387;48.772;9.186;2023-05-14T05:24:11;16.83;;;10.70;;
809;SDS011;387;48.772;9.186;2023-05-14T05:26:37;20.30;;;11.20;;
809;SDS011;387;48.772;9.186;2023-05-14T05:29:03;18.83;;;10.60;;
809;SDS011;387;48.772;9.186;2023-05-14T05:31:29;16.10;;;10.03;;
809;SDS011;387;48.772;9.186;2023-05-14T05:33:56;20.60;;;11.43;;
809;SDS011;387;48.772;9.186;2023-05-14T05:36:25;22.00;;;11.40;;
809;SDS011;387;48.772;9.186;2023-05-14T05:38:50;17.90;;;10.00;;
809;SDS011;387;48.772;9.186;2023-05-14T05:41:16;20.90;;;11.93;;
809;SDS011;387;48.772;9.186;2023-05-14T05:43:42;20.90;;;11.20;;
809;SDS011;387;48.772;9.186;2023-05-14T05:46:07;16.90;;;9.90;;
809;SDS011;387;48.772;9.186;2023-05-14T05:48:33;22.90;;;12.20;;
809;SDS011;387;48.772;9.186;2023-05-14T05:50:59;20.40;;;12.50;;
809;SDS011;387;48.772;9.186;2023-05-14T05:53:24;20.80;;;12.30;;
809;SDS011;387;48.772;9.186;2023-05-14T05:55:50;18.83;;;10.50;;
809;SDS011;387;48.772;9.186;2023-05-14T05:58:18;18.73;;;11.80;;
809;SDS011;387;48.772;9.186;2023-05-14T06:00:44;17.03;;;10.97;;
809;SDS011;387;48.772;9.186;2023-05-14T06:03:14;15.80;;;10.23;;
809;SDS011;387;48.772;9.186;2023-05-14T06:05:39;19.63;;;11.17;;
809;SDS011;387;48.772;9.186;2023-05-14T06:08:05;17.00;;;10.37;;
809;SDS011;387;48.772;9.186;2023-05-14T06:10:31;18.43;;;11.33;;
809;SDS011;387;48.772;9.186;2023-05-14T06:12:58;20.53;;;11.50;;
809;SDS011;387;48.772;9.186;2023-05-14T06:15:23;20.97;;;12.50;;
809;SDS011;387;48.772;9.186;2023-05-14T06:17:49;21.07;;;11.00;;
809;SDS011;387;48.772;9.186;2023-05-14T06:20:15;16.53;;;11.00;;
809;SDS011;387;48.772;9.186;2023-05-14T06:22:41;17.63;;;10.43;;
809;SDS011;387;48.772;9.186;2023-05-14T06:25:06;19.47;;;10.60;;
809;SDS011;387;48.772;9.186;2023-05-14T06:27:32;21.80;;;11.60;;
809;SDS011;387;48.772;9.186;2023-05-14T06:29:58;19.33;;;9.40;;
809;SDS011;387;48.772;9.186;2023-05-14T06:32:24;19.27;;;11.10;;
809;SDS011;387;48.772;9.186;2023-05-14T06:34:49;14.63;;;9.50;;
809;SDS011;387;48.772;9.186;2023-05-14T06:37:15;19.03;;;10.20;;
809;SDS011;387;48.772;9.186;2023-05-14T06:39:40;18.00;;;10.43;;
809;SDS011;387;48.772;9.186;2023-05-14T06:42:17;16.97;;;10.27;;
809;SDS011;387;48.772;9.186;2023-05-14T06:44:43;17.20;;;9.57;;
809;SDS011;387;48.772;9.186;2023-05-14T06:47:09;20.37;;;10.60;;
809;SDS011;387;48.772;9.186;2023-05-14T06:49:35;19.90;;;10.63;;
809;SDS011;387;48.772;9.186;2023-05-14T06:52:01;17.07;;;9.57;;
809;SDS011;387;48.772;9.186;2023-05-14T06:54:27;16.60;;;9.23;;
809;SDS011;387;48.772;9.186;2023-05-14T06:56:53;19.63;;;10.50;;
809;SDS011;387;48.772;9.186;2023-05-14T06:59:19;18.20;;;11.27;;
809;SDS011;387;48.772;9.186;2023-05-14T07:01:45;18.00;;;11.37;;
809;SDS011;387;48.772;9.186;2023-05-14T07:04:10;17.20;;;10.37;;
809;SDS011;387;48.772;9.186;2023-05-14T07:06:36;17.03;;;10.07;;
809;SDS011;387;48.772;9.186;2023-05-14T07:09:02;13.73;;;8.93;;
809;SDS011;387;48.772;9.186;2023-05-14T07:11:28;17.77;;;10.83;;
809;SDS011;387;48.772;9.186;2023-05-14T07:13:53;17.53;;;10.30;;
809;SDS011;387;48.772;9.186;2023-05-14T07:16:19;17.20;;;10.70;;
809;SDS011;387;48.772;9.186;2023-05-14T07:18:45;16.83;;;10.60;;
809;SDS011;387;48.772;9.186;2023-05-14T07:21:11;16.60;;;10.07;;
809;SDS011;387;48.772;9.186;2023-05-14T07:23:36;18.40;;;10.33;;
809;SDS011;387;48.772;9.186;2023-05-14T07:26:05;17.40;;;10.67;;
809;SDS011;387;48.772;9.186;2023-05-14T07:28:31;16.73;;;10.00;;
809;SDS011;387;48.772;9.186;2023-05-14T07:30:57;21.80;;;11.90;;
809;SDS011;387;48.772;9.186;2023-05-14T07:33:23;19.13;;;9.93;;
809;SDS011;387;48.772;9.186;2023-05-14T07:35:50;17.90;;;10.30;;
809;SDS011;387;48.772;9.186;2023-05-14T07:38:16;20.87;;;11.93;;
809;SDS011;387;48.772;9.186;2023-05-14T07:40:43;16.40;;;10.40;;
809;SDS011;387;48.772;9.186;2023-05-14T07:43:09;19.17;;;12.20;;
809;SDS011;387;48.772;9.186;2023-05-14T07:45:35;14.40;;;9.90;;
809;SDS011;387;48.772;9.186;2023-05-14T07:48:02;14.53;;;9.33;;
809;SDS011;387;48.772;9.186;2023-05-14T07:50:28;17.43;;;11.73;;
809;SDS011;387;48.772;9.186;2023-05-14T07:52:54;16.30;;;10.37;;
809;SDS011;387;48.772;9.186;2023-05-14T07:55:19;16.37;;;10.33;;
809;SDS011;387;48.772;9.186;2023-05-14T07:57:45;13.73;;;9.03;;
809;SDS011;387;48.772;9.186;2023-05-14T08:00:11;17.87;;;10.57;;
809;SDS011;387;48.772;9.186;2023-05-14T08:02:37;16.63;;;10.17;;
809;SDS011;387;48.772;9.186;2023-05-14T08:05:02;17.73;;;9.70;;
809;SDS011;387;48.772;9.186;2023-05-14T08:07:28;18.50;;;11.60;;
809;SDS011;387;48.772;9.186;2023-05-14T08:09:54;16.83;;;10.70;;
809;SDS011;387;48.772;9.186;2023-05-14T08:12:20;20.00;;;12.20;;
809;SDS011;387;48.772;9.186;2023-05-14T08:14:46;19.57;;;11.33;;
809;SDS011;387;48.772;9.186;2023-05-14T08:17:12;20.00;;;11.97;;
809;SDS011;387;48.772;9.186;2023-05-14T08:19:37;22.13;;;12.37;;
809;SDS011;387;48.772;9.186;2023-05-14T08:22:03;20.77;;;12.70;;
809;SDS011;387;48.772;9.186;2023-05-14T08:24:29;22.07;;;12.00;;
809;SDS011;387;48.772;9.186;2023-05-14T08:26:55;21.73;;;12.73;;
809;SDS011;387;48.772;9.186;2023-05-14T08:29:21;16.70;;;10.60;;
809;SDS011;387;48.772;9.186;2023-05-14T08:31:48;19.63;;;10.17;;
809;SDS011;387;48.772;9.186;2023-05-14T08:34:15;20.83;;;11.07;;
809;SDS011;387;48.772;9.186;2023-05-14T08:36:40;14.90;;;9.63;;
809;SDS011;387;48.772;9.186;2023-05-14T08:39:06;19.03;;;11.87;;
809;SDS011;387;48.772;9.186;2023-05-14T08:41:32;14.70;;;9.50;;
809;SDS011;387;48.772;9.186;2023-05-14T08:46:33;15.50;;;10.00;;
809;SDS011;387;48.772;9.186;2023-05-14T08:49:49;17.00;;;10.80;;
809;SDS011;387;48.772;9.186;2023-05-14T08:51:47;15.73;;;10.43;;
809;SDS011;387;48.772;9.186;2023-05-14T08:54:17;18.67;;;10.23;;
809;SDS011;387;48.772;9.186;2023-05-14T08:56:43;19.10;;;11.33;;
809;SDS011;387;48.772;9.186;2023-05-14T08:59:12;15.67;;;10.27;;
809;SDS011;387;48.772;9.186;2023-05-14T09:01:40;17.90;;;11.30;;
809;SDS011;387;48.772;9.186;2023-05-14T09:04:10;18.20;;;10.20;;
809;SDS011;387;48.772;9.186;2023-05-14T09:06:36;18.77;;;11.80;;
809;SDS011;387;48.772;9.186;2023-05-14T09:09:03;21.90;;;11.30;;
809;SDS011;387;48.772;9.186;2023-05-14T09:11:29;19.47;;;11.53;;
809;SDS011;387;48.772;9.186;2023-05-14T09:13:54;23.00;;;12.40;;
809;SDS011;387;48.772;9.186;2023-05-14T09:16:20;20.50;;;11.87;;
809;SDS011;387;48.772;9.186;2023-05-14T09:18:47;23.90;;;12.13;;
809;SDS011;387;48.772;9.186;2023-05-14T09:21:13;20.17;;;12.10;;
809;SDS011;387;48.772;9.186;2023-05-14T09:23:43;21.63;;;11.50;;
809;SDS011;387;48.772;9.186;2023-05-14T09:26:09;22.00;;;12.60;;
809;SDS011;387;48.772;9.186;2023-05-14T09:28:39;24.63;;;12.60;;
809;SDS011;387;48.772;9.186;2023-05-14T09:31:05;19.73;;;10.83;;
809;SDS011;387;48.772;9.186;2023-05-14T09:33:33;22.07;;;11.40;;
809;SDS011;387;48.772;9.186;2023-05-14T09:35:59;18.13;;;10.13;;
809;SDS011;387;48.772;9.186;2023-05-14T09:38:31;23.03;;;12.50;;
809;SDS011;387;48.772;9.186;2023-05-14T09:40:58;17.87;;;10.80;;
809;SDS011;387;48.772;9.186;2023-05-14T09:43:24;16.47;;;10.13;;
809;SDS011;387;48.772;9.186;2023-05-14T09:45:51;16.67;;;10.57;;
809;SDS011;387;48.772;9.186;2023-05-14T09:48:17;15.93;;;10.47;;
809;SDS011;387;48.772;9.186;2023-05-14T09:50:43;19.10;;;11.83;;
809;SDS011;387;48.772;9.186;2023-05-14T09:53:10;18.43;;;10.87;;
809;SDS011;387;48.772;9.186;2023-05-14T09:55:38;14.03;;;9.00;;
809;SDS011;387;48.772;9.186;2023-05-14T09:58:04;17.47;;;9.47;;
809;SDS011;387;48.772;9.186;2023-05-14T10:00:33;17.30;;;9.80;;
809;SDS011;387;48.772;9.186;2023-05-14T10:03:02;17.60;;;10.70;;
809;SDS011;387;48.772;9.186;2023-05-14T10:05:31;19.60;;;11.57;;
809;SDS011;387;48.772;9.186;2023-05-14T10:08:00;18.43;;;12.00;;
809;SDS011;387;48.772;9.186;2023-05-14T10:10:32;16.90;;;11.00;;
809;SDS011;387;48.772;9.186;2023-05-14T10:13:06;17.20;;;10.33;;
809;SDS011;387;48.772;9.186;2023-05-14T10:15:39;15.20;;;10.13;;
809;SDS011;387;48.772;9.186;2023-05-14T10:18:29;17.23;;;10.50;;
809;SDS011;387;48.772;9.186;2023-05-14T10:21:03;16.27;;;9.73;;
809;SDS011;387;48.772;9.186;2023-05-14T10:23:29;16.20;;;10.03;;
809;SDS011;387;48.772;9.186;2023-05-14T10:25:56;19.67;;;9.70;;
809;SDS011;387;48.772;9.186;2023-05-14T10:28:22;12.87;;;7.80;;
809;SDS011;387;48.772;9.186;2023-05-14T10:30:48;13.20;;;9.10;;
809;SDS011;387;48.772;9.186;2023-05-14T10:33:14;14.60;;;8.33;;
809;SDS011;387;48.772;9.186;2023-05-14T10:36:24;12.67;;;8.03;;
809;SDS011;387;48.772;9.186;2023-05-14T10:38:34;11.43;;;7.73;;
809;SDS011;387;48.772;9.186;2023-05-14T10:41:05;14.10;;;8.00;;
809;SDS011;387;48.772;9.186;2023-05-14T10:43:35;11.67;;;8.13;;
809;SDS011;387;48.772;9.186;2023-05-14T10:46:03;15.70;;;7.93;;
809;SDS011;387;48.772;9.186;2023-05-14T10:48:29;13.13;;;8.13;;
809;SDS011;387;48.772;9.186;2023-05-14T10:50:56;12.93;;;7.90;;
809;SDS011;387;48.772;9.186;2023-05-14T10:53:31;14.10;;;8.07;;
809;SDS011;387;48.772;9.186;2023-05-14T10:56:02;14.37;;;9.13;;
809;SDS011;387;48.772;9.186;2023-05-14T10:58:35;14.50;;;9.40;;
809;SDS011;387;48.772;9.186;2023-05-14T11:01:02;15.07;;;9.70;;
809;SDS011;387;48.772;9.186;2023-05-14T11:03:30;11.90;;;8.00;;
809;SDS011;387;48.772;9.186;2023-05-14T11:05:56;11.83;;;7.60;;
809;SDS011;387;48.772;9.186;2023-05-14T11:08:24;11.30;;;7.77;;
809;SDS011;387;48.772;9.186;2023-05-14T11:10:53;11.03;;;7.90;;
809;SDS011;387;48.772;9.186;2023-05-14T11:13:18;16.33;;;9.33;;
809;SDS011;387;48.772;9.186;2023-05-14T11:15:45;18.30;;;9.60;;
809;SDS011;387;48.772;9.186;2023-05-14T11:18:12;14.43;;;9.40;;
809;SDS011;387;48.772;9.186;2023-05-14T11:20:38;16.87;;;10.63;;
809;SDS011;387;48.772;9.186;2023-05-14T11:23:04;15.00;;;9.40;;
809;SDS011;387;48.772;9.186;2023-05-14T11:25:30;16.87;;;10.60;;
809;SDS011;387;48.772;9.186;2023-05-14T11:27:55;15.97;;;10.30;;
809;SDS011;387;48.772;9.186;2023-05-14T11:30:24;16.40;;;10.50;;
809;SDS011;387;48.772;9.186;2023-05-14T11:32:50;15.53;;;10.30;;
809;SDS011;387;48.772;9.186;2023-05-14T11:35:16;16.20;;;9.10;;
809;SDS011;387;48.772;9.186;2023-05-14T11:37:42;12.50;;;8.63;;
809;SDS011;387;48.772;9.186;2023-05-14T11:40:14;12.40;;;8.50;;
809;SDS011;387;48.772;9.186;2023-05-14T11:42:43;11.63;;;8.17;;
809;SDS011;387;48.772;9.186;2023-05-14T11:45:09;13.00;;;8.70;;
809;SDS011;387;48.772;9.186;2023-05-14T11:47:36;12.80;;;8.10;;
809;SDS011;387;48.772;9.186;2023-05-14T11:50:02;11.80;;;7.57;;
809;SDS011;387;48.772;9.186;2023-05-14T11:52:28;11.37;;;8.40;;
809;SDS011;387;48.772;9.186;2023-05-14T11:54:54;11.03;;;9.07;;
809;SDS011;387;48.772;9.186;2023-05-14T11:57:20;14.60;;;9.00;;
809;SDS011;387;48.772;9.186;2023-05-14T11:59:46;12.27;;;8.87;;
809;SDS011;387;48.772;9.186;2023-05-14T12:02:14;13.37;;;8.10;;
809;SDS011;387;48.772;9.186;2023-05-14T12:04:42;12.63;;;9.00;;
809;SDS011;387;48.772;9.186;2023-05-14T12:07:11;12.40;;;8.43;;
809;SDS011;387;48.772;9.186;2023-05-14T12:09:40;11.50;;;8.63;;
809;SDS011;387;48.772;9.186;2023-05-14T12:12:13;10.60;;;7.30;;
809;SDS011;387;48.772;9.186;2023-05-14T12:14:42;10.30;;;7.63;;
809;SDS011;387;48.772;9.186;2023-05-14T12:17:18;12.73;;;7.70;;
809;SDS011;387;48.772;9.186;2023-05-14T12:19:46;12.80;;;8.57;;
809;SDS011;387;48.772;9.186;2023-05-14T12:22:14;11.43;;;7.60;;
809;SDS011;387;48.772;9.186;2023-05-14T12:24:42;12.00;;;8.50;;
809;SDS011;387;48.772;9.186;2023-05-14T12:27:16;10.27;;;8.20;;
809;SDS011;387;48.772;9.186;2023-05-14T12:29:46;11.20;;;6.70;;
809;SDS011;387;48.772;9.186;2023-05-14T12:32:11;9.97;;;6.80;;
809;SDS011;387;48.772;9.186;2023-05-14T12:34:38;10.70;;;6.20;;
809;SDS011;387;48.772;9.186;2023-05-14T12:37:04;9.87;;;6.60;;
809;SDS011;387;48.772;9.186;2023-05-14T12:39:31;15.63;;;6.60;;
809;SDS011;387;48.772;9.186;2023-05-14T12:41:57;9.07;;;7.10;;
809;SDS011;387;48.772;9.186;2023-05-14T12:44:23;10.60;;;6.17;;
809;SDS011;387;48.772;9.186;2023-05-14T12:46:49;9.40;;;5.97;;
809;SDS011;387;48.772;9.186;2023-05-14T12:49:14;7.67;;;5.70;;
809;SDS011;387;48.772;9.186;2023-05-14T12:51:40;9.77;;;7.27;;
809;SDS011;387;48.772;9.186;2023-05-14T12:54:06;9.47;;;6.40;;
809;SDS011;387;48.772;9.186;2023-05-14T12:56:31;8.70;;;6.50;;
809;SDS011;387;48.772;9.186;2023-05-14T12:58:57;10.13;;;7.00;;
809;SDS011;387;48.772;9.186;2023-05-14T13:01:22;8.67;;;6.60;;
809;SDS011;387;48.772;9.186;2023-05-14T13:03:48;7.77;;;5.43;;
809;SDS011;387;48.772;9.186;2023-05-14T13:06:14;7.90;;;5.93;;
809;SDS011;387;48.772;9.186;2023-05-14T13:08:40;8.97;;;6.50;;
809;SDS011;387;48.772;9.186;2023-05-14T13:11:06;9.27;;;6.50;;
809;SDS011;387;48.772;9.186;2023-05-14T13:13:32;10.50;;;7.07;;
809;SDS011;387;48.772;9.186;2023-05-14T13:15:58;7.20;;;6.30;;
809;SDS011;387;48.772;9.186;2023-05-14T13:18:23;7.60;;;5.87;;
809;SDS011;387;48.772;9.186;2023-05-14T13:20:50;7.40;;;5.90;;
809;SDS011;387;48.772;9.186;2023-05-14T13:23:16;7.90;;;5.30;;
809;SDS011;387;48.772;9.186;2023-05-14T13:25:41;8.10;;;6.00;;
809;SDS011;387;48.772;9.186;2023-05-14T13:28:07;11.03;;;6.40;;
809;SDS011;387;48.772;9.186;2023-05-14T13:30:33;8.67;;;6.00;;
809;SDS011;387;48.772;9.186;2023-05-14T13:32:59;9.23;;;6.63;;
809;SDS011;387;48.772;9.186;2023-05-14T13:35:24;8.87;;;6.33;;
809;SDS011;387;48.772;9.186;2023-05-14T13:37:50;9.33;;;6.47;;
809;SDS011;387;48.772;9.186;2023-05-14T13:40:16;11.60;;;6.63;;
809;SDS011;387;48.772;9.186;2023-05-14T13:42:42;11.97;;;7.63;;
809;SDS011;387;48.772;9.186;2023-05-14T13:45:07;8.90;;;6.10;;
809;SDS011;387;48.772;9.186;2023-05-14T13:47:33;6.87;;;5.70;;
809;SDS011;387;48.772;9.186;2023-05-14T13:49:59;8.40;;;6.80;;
809;SDS011;387;48.772;9.186;2023-05-14T13:52:25;10.87;;;7.20;;
809;SDS011;387;48.772;9.186;2023-05-14T13:54:50;8.53;;;6.03;;
809;SDS011;387;48.772;9.186;2023-05-14T13:57:17;9.10;;;6.03;;
809;SDS011;387;48.772;9.186;2023-05-14T13:59:44;9.07;;;6.13;;
809;SDS011;387;48.772;9.186;2023-05-14T14:02:17;8.80;;;6.27;;
809;SDS011;387;48.772;9.186;2023-05-14T14:04:43;9.43;;;6.43;;
809;SDS011;387;48.772;9.186;2023-05-14T14:07:09;8.53;;;6.03;;
809;SDS011;387;48.772;9.186;2023-05-14T14:09:34;9.57;;;6.77;;
809;SDS011;387;48.772;9.186;2023-05-14T14:12:04;9.90;;;7.40;;
809;SDS011;387;48.772;9.186;2023-05-14T14:14:30;12.20;;;6.53;;
809;SDS011;387;48.772;9.186;2023-05-14T14:16:56;8.50;;;6.80;;
809;SDS011;387;48.772;9.186;2023-05-14T14:19:21;9.80;;;7.17;;
809;SDS011;387;48.772;9.186;2023-05-14T14:21:47;9.33;;;5.63;;
809;SDS011;387;48.772;9.186;2023-05-14T14:24:13;7.77;;;5.93;;
809;SDS011;387;48.772;9.186;2023-05-14T14:26:38;7.43;;;5.90;;
809;SDS011;387;48.772;9.186;2023-05-14T14:29:04;7.87;;;5.60;;
809;SDS011;387;48.772;9.186;2023-05-14T14:31:29;7.80;;;5.73;;
809;SDS011;387;48.772;9.186;2023-05-14T14:33:55;7.83;;;5.33;;
809;SDS011;387;48.772;9.186;2023-05-14T14:36:21;5.53;;;4.73;;
809;SDS011;387;48.772;9.186;2023-05-14T14:38:46;6.47;;;4.43;;
809;SDS011;387;48.772;9.186;2023-05-14T14:41:12;6.77;;;4.47;;
809;SDS011;387;48.772;9.186;2023-05-14T14:43:38;6.83;;;5.23;;
809;SDS011;387;48.772;9.186;2023-05-14T14:46:04;7.80;;;5.20;;
809;SDS011;387;48.772;9.186;2023-05-14T14:48:33;7.60;;;5.57;;
809;SDS011;387;48.772;9.186;2023-05-14T14:51:01;9.07;;;5.60;;
809;SDS011;387;48.772;9.186;2023-05-14T14:53:28;7.50;;;5.70;;
809;SDS011;387;48.772;9.186;2023-05-14T14:55:55;7.87;;;5.37;;
809;SDS011;387;48.772;9.186;2023-05-14T14:58:22;5.17;;;4.43;;
809;SDS011;387;48.772;9.186;2023-05-14T15:00:52;8.40;;;5.20;;
809;SDS011;387;48.772;9.186;2023-05-14T15:03:19;5.63;;;4.63;;
809;SDS011;387;48.772;9.186;2023-05-14T15:05:45;6.93;;;5.30;;
809;SDS011;387;48.772;9.186;2023-05-14T15:08:11;6.80;;;5.03;;
809;SDS011;387;48.772;9.186;2023-05-14T15:10:37;6.60;;;4.70;;
809;SDS011;387;48.772;9.186;2023-05-14T15:13:04;6.97;;;4.43;;
809;SDS011;387;48.772;9.186;2023-05-14T15:15:34;6.17;;;4.30;;
809;SDS011;387;48.772;9.186;2023-05-14T15:18:00;10.37;;;5.27;;
809;SDS011;387;48.772;9.186;2023-05-14T15:20:26;7.40;;;4.87;;
809;SDS011;387;48.772;9.186;2023-05-14T15:22:52;6.70;;;4.90;;